Ukiah, California
Current Conditions -  °F | °C
As of 12:43 AM on Saturday 22 Nov 2014 (Local Time) from KUKI Reporting Station
Light Rain Light Rain  
Wind Chill: 54°   Ceiling: 2400
Heat Index: 54°   Visibility: 6mi
Dew Point: 52°   Wind: 9mph
Humidity: 93%   Direction: 160°SSE
Pressure: 30.03"   Gusts: 20mph
Location:  39.15°N, 123.2°W
Report Text: KUKI 220843Z AUTO 16008G17KT 6SM -RA BR FEW008 BKN024 OVC075 12/11 A3003 RMK AO2 P0012 T01220111
Loading
Personal Weather Stations






























Interactive Weather Map New forecast layout! Learn more

10-Day Weather Forecast

Advertisements
Track Severe Weather on mobile